< < Back
Terminal Aerodrome Forecast


Current Version              Previous Versions:   1  2  3  4  5  6  7  8  9  

Terminal Aerodrome Forecast

198
FTUS42 KJAX 300900 AAA
TAFGNV
TAF AMD
KGNV 300901Z 3009/3106 31004KT 6SM BR SCT050 BKN120
     FM301700 34007KT P6SM VCSH SCT050 BKN110
     FM302300 01004KT P6SM SCT030 BKN120=

Latest METAR

451
SAUS70 KWBC 301200 RRT
MTRGNV
METAR KGNV 301153Z 00000KT 10SM BKN006 14/14 A2999 RMK AO2 CIG 004V008
SLP154 T01440139 10167 20139 52008


USA.gov is the U.S. government's official web portal to all federal, state and local government web resources and services.